sensor_id;sensor_type;location;lat;lon;timestamp;temperature;humidity
212;DHT22;16228;48.800;9.002;2023-05-13T00:00:29;11.80;96.90
212;DHT22;16228;48.800;9.002;2023-05-13T00:02:57;11.80;96.90
212;DHT22;16228;48.800;9.002;2023-05-13T00:05:24;11.80;96.90
212;DHT22;16228;48.800;9.002;2023-05-13T00:07:51;11.80;96.90
212;DHT22;16228;48.800;9.002;2023-05-13T00:10:18;11.80;96.90
212;DHT22;16228;48.800;9.002;2023-05-13T00:12:47;11.80;96.90
212;DHT22;16228;48.800;9.002;2023-05-13T00:15:14;11.80;96.90
212;DHT22;16228;48.800;9.002;2023-05-13T00:17:41;11.80;96.90
212;DHT22;16228;48.800;9.002;2023-05-13T00:20:09;11.80;96.90
212;DHT22;16228;48.800;9.002;2023-05-13T00:22:36;11.80;96.90
212;DHT22;16228;48.800;9.002;2023-05-13T00:25:04;11.80;96.90
212;DHT22;16228;48.800;9.002;2023-05-13T00:27:31;11.80;96.90
212;DHT22;16228;48.800;9.002;2023-05-13T00:29:59;11.80;96.90
212;DHT22;16228;48.800;9.002;2023-05-13T00:32:27;11.70;96.90
212;DHT22;16228;48.800;9.002;2023-05-13T00:34:54;11.70;96.90
212;DHT22;16228;48.800;9.002;2023-05-13T00:37:21;11.60;96.90
212;DHT22;16228;48.800;9.002;2023-05-13T00:39:48;11.60;96.90
212;DHT22;16228;48.800;9.002;2023-05-13T00:42:15;11.60;96.90
212;DHT22;16228;48.800;9.002;2023-05-13T00:44:43;11.60;96.90
212;DHT22;16228;48.800;9.002;2023-05-13T00:47:12;11.60;96.90
212;DHT22;16228;48.800;9.002;2023-05-13T00:49:39;11.50;96.90
212;DHT22;16228;48.800;9.002;2023-05-13T00:52:06;11.50;96.90
212;DHT22;16228;48.800;9.002;2023-05-13T00:54:33;11.40;96.90
212;DHT22;16228;48.800;9.002;2023-05-13T00:57:01;11.30;96.90
212;DHT22;16228;48.800;9.002;2023-05-13T00:59:29;11.20;96.90
212;DHT22;16228;48.800;9.002;2023-05-13T01:02:02;11.20;96.90
212;DHT22;16228;48.800;9.002;2023-05-13T01:04:40;11.10;96.90
212;DHT22;16228;48.800;9.002;2023-05-13T01:07:13;11.10;96.90
212;DHT22;16228;48.800;9.002;2023-05-13T01:09:52;11.00;96.90
212;DHT22;16228;48.800;9.002;2023-05-13T01:12:30;11.00;96.90
212;DHT22;16228;48.800;9.002;2023-05-13T01:15:03;10.90;96.90
212;DHT22;16228;48.800;9.002;2023-05-13T01:17:33;10.90;96.90
212;DHT22;16228;48.800;9.002;2023-05-13T01:20:03;10.80;96.90
212;DHT22;16228;48.800;9.002;2023-05-13T01:22:32;10.90;96.90
212;DHT22;16228;48.800;9.002;2023-05-13T01:24:59;10.90;96.90
212;DHT22;16228;48.800;9.002;2023-05-13T01:27:27;10.90;96.90
212;DHT22;16228;48.800;9.002;2023-05-13T01:29:54;10.90;96.90
212;DHT22;16228;48.800;9.002;2023-05-13T01:32:23;11.00;96.90
212;DHT22;16228;48.800;9.002;2023-05-13T01:34:50;11.00;96.90
212;DHT22;16228;48.800;9.002;2023-05-13T01:37:18;11.00;96.90
212;DHT22;16228;48.800;9.002;2023-05-13T01:39:47;11.00;96.90
212;DHT22;16228;48.800;9.002;2023-05-13T01:42:14;11.00;96.90
212;DHT22;16228;48.800;9.002;2023-05-13T01:44:41;10.90;96.90
212;DHT22;16228;48.800;9.002;2023-05-13T01:47:09;10.80;96.90
212;DHT22;16228;48.800;9.002;2023-05-13T01:49:39;10.70;96.90
212;DHT22;16228;48.800;9.002;2023-05-13T01:52:06;10.60;96.90
212;DHT22;16228;48.800;9.002;2023-05-13T01:54:33;10.50;96.90
212;DHT22;16228;48.800;9.002;2023-05-13T01:57:02;10.50;96.90
212;DHT22;16228;48.800;9.002;2023-05-13T01:59:29;10.40;96.90
212;DHT22;16228;48.800;9.002;2023-05-13T02:01:56;10.40;96.90
212;DHT22;16228;48.800;9.002;2023-05-13T02:04:24;10.40;96.90
212;DHT22;16228;48.800;9.002;2023-05-13T02:06:51;10.40;96.90
212;DHT22;16228;48.800;9.002;2023-05-13T02:09:18;10.50;96.90
212;DHT22;16228;48.800;9.002;2023-05-13T02:11:45;10.50;96.90
212;DHT22;16228;48.800;9.002;2023-05-13T02:14:14;10.50;96.90
212;DHT22;16228;48.800;9.002;2023-05-13T02:16:41;10.50;96.90
212;DHT22;16228;48.800;9.002;2023-05-13T02:19:08;10.50;96.90
212;DHT22;16228;48.800;9.002;2023-05-13T02:21:35;10.40;96.90
212;DHT22;16228;48.800;9.002;2023-05-13T02:24:03;10.40;96.90
212;DHT22;16228;48.800;9.002;2023-05-13T02:26:30;10.40;96.90
212;DHT22;16228;48.800;9.002;2023-05-13T02:28:57;10.50;96.90
212;DHT22;16228;48.800;9.002;2023-05-13T02:31:26;10.50;96.90
212;DHT22;16228;48.800;9.002;2023-05-13T02:33:53;10.50;96.90
212;DHT22;16228;48.800;9.002;2023-05-13T02:36:20;10.60;96.90
212;DHT22;16228;48.800;9.002;2023-05-13T02:38:47;10.60;96.90
212;DHT22;16228;48.800;9.002;2023-05-13T02:41:15;10.60;96.90
212;DHT22;16228;48.800;9.002;2023-05-13T02:43:43;10.60;96.90
212;DHT22;16228;48.800;9.002;2023-05-13T02:46:10;10.60;96.90
212;DHT22;16228;48.800;9.002;2023-05-13T02:48:38;10.60;96.90
212;DHT22;16228;48.800;9.002;2023-05-13T02:51:24;10.60;96.90
212;DHT22;16228;48.800;9.002;2023-05-13T02:54:09;10.50;96.90
212;DHT22;16228;48.800;9.002;2023-05-13T02:56:55;10.60;96.90
212;DHT22;16228;48.800;9.002;2023-05-13T02:59:41;10.50;96.90
212;DHT22;16228;48.800;9.002;2023-05-13T03:02:26;10.50;96.90
212;DHT22;16228;48.800;9.002;2023-05-13T03:05:14;10.50;96.90
212;DHT22;16228;48.800;9.002;2023-05-13T03:07:59;10.50;96.90
212;DHT22;16228;48.800;9.002;2023-05-13T03:10:45;10.50;96.90
212;DHT22;16228;48.800;9.002;2023-05-13T03:13:31;10.50;96.90
212;DHT22;16228;48.800;9.002;2023-05-13T03:16:17;10.50;96.90
212;DHT22;16228;48.800;9.002;2023-05-13T03:19:02;10.50;96.90
212;DHT22;16228;48.800;9.002;2023-05-13T03:21:49;10.60;96.90
212;DHT22;16228;48.800;9.002;2023-05-13T03:24:35;10.50;96.90
212;DHT22;16228;48.800;9.002;2023-05-13T03:27:20;10.50;96.90
212;DHT22;16228;48.800;9.002;2023-05-13T03:30:07;10.50;96.90
212;DHT22;16228;48.800;9.002;2023-05-13T03:32:52;10.50;96.90
212;DHT22;16228;48.800;9.002;2023-05-13T03:35:39;10.50;96.90
212;DHT22;16228;48.800;9.002;2023-05-13T03:38:26;10.50;96.90
212;DHT22;16228;48.800;9.002;2023-05-13T03:41:12;10.50;96.90
212;DHT22;16228;48.800;9.002;2023-05-13T03:44:00;10.50;96.90
212;DHT22;16228;48.800;9.002;2023-05-13T03:46:45;10.50;96.90
212;DHT22;16228;48.800;9.002;2023-05-13T03:49:31;10.50;96.90
212;DHT22;16228;48.800;9.002;2023-05-13T03:52:17;10.50;96.90
212;DHT22;16228;48.800;9.002;2023-05-13T03:55:04;10.60;96.90
212;DHT22;16228;48.800;9.002;2023-05-13T03:57:50;10.60;96.90
212;DHT22;16228;48.800;9.002;2023-05-13T04:00:36;10.60;96.90
212;DHT22;16228;48.800;9.002;2023-05-13T04:03:21;10.60;96.90
212;DHT22;16228;48.800;9.002;2023-05-13T04:06:07;10.60;96.90
212;DHT22;16228;48.800;9.002;2023-05-13T04:08:53;10.60;96.90
212;DHT22;16228;48.800;9.002;2023-05-13T04:11:40;10.60;96.90
212;DHT22;16228;48.800;9.002;2023-05-13T04:14:26;10.60;96.90
212;DHT22;16228;48.800;9.002;2023-05-13T04:17:11;10.60;96.90
212;DHT22;16228;48.800;9.002;2023-05-13T04:19:57;10.60;96.90
212;DHT22;16228;48.800;9.002;2023-05-13T04:22:43;10.60;96.90
212;DHT22;16228;48.800;9.002;2023-05-13T04:25:29;10.60;96.90
212;DHT22;16228;48.800;9.002;2023-05-13T04:28:16;10.60;96.90
212;DHT22;16228;48.800;9.002;2023-05-13T04:31:02;10.60;96.90
212;DHT22;16228;48.800;9.002;2023-05-13T04:33:47;10.60;96.90
212;DHT22;16228;48.800;9.002;2023-05-13T04:36:33;10.60;96.90
212;DHT22;16228;48.800;9.002;2023-05-13T04:39:19;10.60;96.90
212;DHT22;16228;48.800;9.002;2023-05-13T04:42:05;10.70;96.90
212;DHT22;16228;48.800;9.002;2023-05-13T04:44:52;10.70;96.90
212;DHT22;16228;48.800;9.002;2023-05-13T04:47:38;10.70;96.90
212;DHT22;16228;48.800;9.002;2023-05-13T04:50:24;10.60;96.90
212;DHT22;16228;48.800;9.002;2023-05-13T04:53:09;10.60;96.90
212;DHT22;16228;48.800;9.002;2023-05-13T04:55:55;10.60;96.90
212;DHT22;16228;48.800;9.002;2023-05-13T04:58:43;10.70;96.90
212;DHT22;16228;48.800;9.002;2023-05-13T05:01:30;10.70;96.90
212;DHT22;16228;48.800;9.002;2023-05-13T05:04:16;10.70;96.90
212;DHT22;16228;48.800;9.002;2023-05-13T05:07:02;10.70;96.90
212;DHT22;16228;48.800;9.002;2023-05-13T05:09:48;10.80;96.90
212;DHT22;16228;48.800;9.002;2023-05-13T05:12:33;10.80;96.90
212;DHT22;16228;48.800;9.002;2023-05-13T05:15:21;10.80;96.90
212;DHT22;16228;48.800;9.002;2023-05-13T05:18:08;10.80;96.90
212;DHT22;16228;48.800;9.002;2023-05-13T05:20:54;10.90;96.90
212;DHT22;16228;48.800;9.002;2023-05-13T05:23:40;10.90;96.90
212;DHT22;16228;48.800;9.002;2023-05-13T05:26:26;10.90;96.90
212;DHT22;16228;48.800;9.002;2023-05-13T05:29:12;10.90;96.90
212;DHT22;16228;48.800;9.002;2023-05-13T05:31:57;11.00;96.90
212;DHT22;16228;48.800;9.002;2023-05-13T05:34:44;10.90;96.90
212;DHT22;16228;48.800;9.002;2023-05-13T05:37:30;11.00;96.90
212;DHT22;16228;48.800;9.002;2023-05-13T05:40:16;11.00;96.90
212;DHT22;16228;48.800;9.002;2023-05-13T05:43:02;11.00;96.90
212;DHT22;16228;48.800;9.002;2023-05-13T05:45:48;11.10;96.90
212;DHT22;16228;48.800;9.002;2023-05-13T05:48:33;11.10;96.90
212;DHT22;16228;48.800;9.002;2023-05-13T05:51:20;11.10;96.90
212;DHT22;16228;48.800;9.002;2023-05-13T05:54:06;11.10;96.90
212;DHT22;16228;48.800;9.002;2023-05-13T05:56:52;11.20;96.90
212;DHT22;16228;48.800;9.002;2023-05-13T05:59:37;11.20;96.90
212;DHT22;16228;48.800;9.002;2023-05-13T06:02:23;11.20;96.90
212;DHT22;16228;48.800;9.002;2023-05-13T06:05:09;11.20;96.90
212;DHT22;16228;48.800;9.002;2023-05-13T06:07:56;11.30;96.90
212;DHT22;16228;48.800;9.002;2023-05-13T06:10:42;11.30;96.90
212;DHT22;16228;48.800;9.002;2023-05-13T06:13:28;11.40;96.90
212;DHT22;16228;48.800;9.002;2023-05-13T06:16:14;11.50;96.90
212;DHT22;16228;48.800;9.002;2023-05-13T06:18:59;11.50;96.90
212;DHT22;16228;48.800;9.002;2023-05-13T06:21:45;11.50;96.90
212;DHT22;16228;48.800;9.002;2023-05-13T06:24:33;11.60;96.90
212;DHT22;16228;48.800;9.002;2023-05-13T06:27:18;11.70;96.90
212;DHT22;16228;48.800;9.002;2023-05-13T06:30:05;11.80;96.90
212;DHT22;16228;48.800;9.002;2023-05-13T06:32:51;11.90;96.90
212;DHT22;16228;48.800;9.002;2023-05-13T06:35:38;12.00;96.90
212;DHT22;16228;48.800;9.002;2023-05-13T06:38:23;12.00;96.90
212;DHT22;16228;48.800;9.002;2023-05-13T06:41:10;12.00;96.90
212;DHT22;16228;48.800;9.002;2023-05-13T06:43:56;12.00;96.90
212;DHT22;16228;48.800;9.002;2023-05-13T06:46:42;12.00;96.90
212;DHT22;16228;48.800;9.002;2023-05-13T06:49:28;12.10;96.90
212;DHT22;16228;48.800;9.002;2023-05-13T06:52:14;12.00;96.90
212;DHT22;16228;48.800;9.002;2023-05-13T06:54:59;12.00;96.90
212;DHT22;16228;48.800;9.002;2023-05-13T06:57:47;12.10;96.90
212;DHT22;16228;48.800;9.002;2023-05-13T07:00:35;12.20;96.90
212;DHT22;16228;48.800;9.002;2023-05-13T07:03:21;12.30;96.90
212;DHT22;16228;48.800;9.002;2023-05-13T07:06:07;12.40;96.90
212;DHT22;16228;48.800;9.002;2023-05-13T07:08:52;12.60;96.90
212;DHT22;16228;48.800;9.002;2023-05-13T07:11:38;12.70;96.90
212;DHT22;16228;48.800;9.002;2023-05-13T07:14:25;12.80;96.90
212;DHT22;16228;48.800;9.002;2023-05-13T07:17:11;12.80;96.90
212;DHT22;16228;48.800;9.002;2023-05-13T07:19:57;12.90;96.90
212;DHT22;16228;48.800;9.002;2023-05-13T07:22:42;12.90;96.90
212;DHT22;16228;48.800;9.002;2023-05-13T07:25:28;12.90;96.90
212;DHT22;16228;48.800;9.002;2023-05-13T07:28:14;13.00;96.90
212;DHT22;16228;48.800;9.002;2023-05-13T07:31:03;13.20;96.90
212;DHT22;16228;48.800;9.002;2023-05-13T07:33:48;13.30;96.90
212;DHT22;16228;48.800;9.002;2023-05-13T07:36:35;13.30;96.90
212;DHT22;16228;48.800;9.002;2023-05-13T07:39:21;13.50;96.90
212;DHT22;16228;48.800;9.002;2023-05-13T07:42:07;13.40;96.90
212;DHT22;16228;48.800;9.002;2023-05-13T07:44:52;13.30;96.90
212;DHT22;16228;48.800;9.002;2023-05-13T07:47:39;13.30;96.90
212;DHT22;16228;48.800;9.002;2023-05-13T07:50:25;13.30;96.90
212;DHT22;16228;48.800;9.002;2023-05-13T07:53:10;13.30;96.90
212;DHT22;16228;48.800;9.002;2023-05-13T07:55:56;13.30;96.90
212;DHT22;16228;48.800;9.002;2023-05-13T07:58:42;13.30;96.90
212;DHT22;16228;48.800;9.002;2023-05-13T08:01:29;13.30;96.90
212;DHT22;16228;48.800;9.002;2023-05-13T08:04:16;13.30;96.90
212;DHT22;16228;48.800;9.002;2023-05-13T08:07:02;13.50;96.90
212;DHT22;16228;48.800;9.002;2023-05-13T08:09:48;13.50;96.90
212;DHT22;16228;48.800;9.002;2023-05-13T08:12:34;13.50;96.90
212;DHT22;16228;48.800;9.002;2023-05-13T08:15:19;13.60;96.90
212;DHT22;16228;48.800;9.002;2023-05-13T08:18:05;13.60;96.90
212;DHT22;16228;48.800;9.002;2023-05-13T08:20:52;13.60;96.90
212;DHT22;16228;48.800;9.002;2023-05-13T08:23:38;13.70;96.90
212;DHT22;16228;48.800;9.002;2023-05-13T08:26:24;13.90;96.90
212;DHT22;16228;48.800;9.002;2023-05-13T08:29:10;13.90;96.90
212;DHT22;16228;48.800;9.002;2023-05-13T08:31:58;13.90;96.90
212;DHT22;16228;48.800;9.002;2023-05-13T08:34:44;14.00;96.90
212;DHT22;16228;48.800;9.002;2023-05-13T08:37:31;14.10;96.90
212;DHT22;16228;48.800;9.002;2023-05-13T08:40:17;14.00;96.90
212;DHT22;16228;48.800;9.002;2023-05-13T08:43:04;13.90;96.90
212;DHT22;16228;48.800;9.002;2023-05-13T08:45:50;14.00;96.90
212;DHT22;16228;48.800;9.002;2023-05-13T08:48:38;13.90;96.90
212;DHT22;16228;48.800;9.002;2023-05-13T08:51:25;13.90;96.90
212;DHT22;16228;48.800;9.002;2023-05-13T08:54:12;14.00;96.90
212;DHT22;16228;48.800;9.002;2023-05-13T08:56:59;14.00;96.90
212;DHT22;16228;48.800;9.002;2023-05-13T08:59:45;14.10;96.90
212;DHT22;16228;48.800;9.002;2023-05-13T09:02:31;14.00;96.90
212;DHT22;16228;48.800;9.002;2023-05-13T09:05:17;14.10;96.90
212;DHT22;16228;48.800;9.002;2023-05-13T09:08:06;14.10;96.90
212;DHT22;16228;48.800;9.002;2023-05-13T09:10:54;14.10;96.90
212;DHT22;16228;48.800;9.002;2023-05-13T09:13:41;14.10;96.90
212;DHT22;16228;48.800;9.002;2023-05-13T09:16:28;14.10;96.90
212;DHT22;16228;48.800;9.002;2023-05-13T09:19:14;14.20;96.90
212;DHT22;16228;48.800;9.002;2023-05-13T09:22:00;14.20;96.90
212;DHT22;16228;48.800;9.002;2023-05-13T09:24:52;14.10;96.90
212;DHT22;16228;48.800;9.002;2023-05-13T09:27:41;14.10;96.90
212;DHT22;16228;48.800;9.002;2023-05-13T09:30:29;14.10;96.90
212;DHT22;16228;48.800;9.002;2023-05-13T09:33:16;14.20;96.90
212;DHT22;16228;48.800;9.002;2023-05-13T09:36:04;14.20;96.90
212;DHT22;16228;48.800;9.002;2023-05-13T09:38:52;14.30;96.90
212;DHT22;16228;48.800;9.002;2023-05-13T09:41:39;14.50;96.90
212;DHT22;16228;48.800;9.002;2023-05-13T09:44:27;14.70;96.90
212;DHT22;16228;48.800;9.002;2023-05-13T09:47:13;15.00;96.90
212;DHT22;16228;48.800;9.002;2023-05-13T09:50:01;15.20;96.90
212;DHT22;16228;48.800;9.002;2023-05-13T09:52:47;15.50;96.90
212;DHT22;16228;48.800;9.002;2023-05-13T09:55:33;15.80;96.90
212;DHT22;16228;48.800;9.002;2023-05-13T09:58:19;15.90;96.90
212;DHT22;16228;48.800;9.002;2023-05-13T10:01:07;16.20;96.90
212;DHT22;16228;48.800;9.002;2023-05-13T10:03:53;16.40;96.90
212;DHT22;16228;48.800;9.002;2023-05-13T10:06:39;16.60;96.90
212;DHT22;16228;48.800;9.002;2023-05-13T10:09:25;16.70;96.90
212;DHT22;16228;48.800;9.002;2023-05-13T10:12:13;16.50;96.90
212;DHT22;16228;48.800;9.002;2023-05-13T10:15:00;16.40;96.90
212;DHT22;16228;48.800;9.002;2023-05-13T10:17:48;16.30;96.90
212;DHT22;16228;48.800;9.002;2023-05-13T10:20:35;16.10;96.90
212;DHT22;16228;48.800;9.002;2023-05-13T10:23:21;16.00;96.90
212;DHT22;16228;48.800;9.002;2023-05-13T10:26:07;16.00;96.90
212;DHT22;16228;48.800;9.002;2023-05-13T10:28:54;16.10;96.90
212;DHT22;16228;48.800;9.002;2023-05-13T10:31:41;16.00;96.90
212;DHT22;16228;48.800;9.002;2023-05-13T10:34:31;16.10;96.90
212;DHT22;16228;48.800;9.002;2023-05-13T10:37:37;16.20;96.90
212;DHT22;16228;48.800;9.002;2023-05-13T10:43:45;16.60;96.90
212;DHT22;16228;48.800;9.002;2023-05-13T10:46:33;16.60;96.90
212;DHT22;16228;48.800;9.002;2023-05-13T10:49:22;16.60;96.90
212;DHT22;16228;48.800;9.002;2023-05-13T10:52:13;16.50;96.90
212;DHT22;16228;48.800;9.002;2023-05-13T10:55:00;16.40;96.90
212;DHT22;16228;48.800;9.002;2023-05-13T10:58:08;16.60;96.90
212;DHT22;16228;48.800;9.002;2023-05-13T11:01:12;16.90;96.90
212;DHT22;16228;48.800;9.002;2023-05-13T11:04:00;17.00;96.90
212;DHT22;16228;48.800;9.002;2023-05-13T11:06:47;16.90;96.90
212;DHT22;16228;48.800;9.002;2023-05-13T11:09:37;16.90;96.90
212;DHT22;16228;48.800;9.002;2023-05-13T11:12:23;16.80;96.90
212;DHT22;16228;48.800;9.002;2023-05-13T11:15:20;16.60;96.90
212;DHT22;16228;48.800;9.002;2023-05-13T11:18:06;16.50;96.90
212;DHT22;16228;48.800;9.002;2023-05-13T11:20:52;16.30;96.90
212;DHT22;16228;48.800;9.002;2023-05-13T11:23:55;16.40;96.90
212;DHT22;16228;48.800;9.002;2023-05-13T11:26:48;16.40;96.90
212;DHT22;16228;48.800;9.002;2023-05-13T11:29:34;16.30;96.90
212;DHT22;16228;48.800;9.002;2023-05-13T11:32:54;16.20;96.90
212;DHT22;16228;48.800;9.002;2023-05-13T11:35:40;16.10;96.90
212;DHT22;16228;48.800;9.002;2023-05-13T11:38:27;16.00;96.90
212;DHT22;16228;48.800;9.002;2023-05-13T11:41:12;15.90;96.90
212;DHT22;16228;48.800;9.002;2023-05-13T11:44:00;15.80;96.90
212;DHT22;16228;48.800;9.002;2023-05-13T11:46:51;15.80;96.90
212;DHT22;16228;48.800;9.002;2023-05-13T11:49:39;15.90;96.90
212;DHT22;16228;48.800;9.002;2023-05-13T11:52:25;16.30;96.90
212;DHT22;16228;48.800;9.002;2023-05-13T11:55:23;16.80;96.90
212;DHT22;16228;48.800;9.002;2023-05-13T11:58:12;17.30;96.90
212;DHT22;16228;48.800;9.002;2023-05-13T12:01:03;17.60;96.90
212;DHT22;16228;48.800;9.002;2023-05-13T12:03:49;17.90;96.90
212;DHT22;16228;48.800;9.002;2023-05-13T12:06:41;18.10;96.90
212;DHT22;16228;48.800;9.002;2023-05-13T12:09:27;17.90;96.90
212;DHT22;16228;48.800;9.002;2023-05-13T12:12:13;17.60;96.90
212;DHT22;16228;48.800;9.002;2023-05-13T12:15:01;17.40;96.90
212;DHT22;16228;48.800;9.002;2023-05-13T12:17:49;17.50;96.90
212;DHT22;16228;48.800;9.002;2023-05-13T12:20:35;17.80;96.90
212;DHT22;16228;48.800;9.002;2023-05-13T12:23:20;18.50;96.90
212;DHT22;16228;48.800;9.002;2023-05-13T12:26:06;18.90;96.90
212;DHT22;16228;48.800;9.002;2023-05-13T12:28:56;19.50;96.90
212;DHT22;16228;48.800;9.002;2023-05-13T12:32:01;20.00;96.90
212;DHT22;16228;48.800;9.002;2023-05-13T12:34:49;19.90;96.90
212;DHT22;16228;48.800;9.002;2023-05-13T12:37:35;19.40;96.90
212;DHT22;16228;48.800;9.002;2023-05-13T12:40:25;18.60;96.90
212;DHT22;16228;48.800;9.002;2023-05-13T12:43:11;18.20;96.90
212;DHT22;16228;48.800;9.002;2023-05-13T12:45:57;18.30;96.90
212;DHT22;16228;48.800;9.002;2023-05-13T12:48:43;18.70;96.90
212;DHT22;16228;48.800;9.002;2023-05-13T12:51:30;19.20;96.90
212;DHT22;16228;48.800;9.002;2023-05-13T12:54:16;19.40;96.90
212;DHT22;16228;48.800;9.002;2023-05-13T12:57:07;19.40;96.00
212;DHT22;16228;48.800;9.002;2023-05-13T12:59:53;19.40;96.90
212;DHT22;16228;48.800;9.002;2023-05-13T13:02:39;19.10;96.90
212;DHT22;16228;48.800;9.002;2023-05-13T13:05:25;18.70;96.90
212;DHT22;16228;48.800;9.002;2023-05-13T13:08:12;18.40;96.90
212;DHT22;16228;48.800;9.002;2023-05-13T13:10:58;18.40;96.90
212;DHT22;16228;48.800;9.002;2023-05-13T13:13:45;18.50;96.90
212;DHT22;16228;48.800;9.002;2023-05-13T13:16:30;18.50;96.90
212;DHT22;16228;48.800;9.002;2023-05-13T13:19:16;18.90;96.90
212;DHT22;16228;48.800;9.002;2023-05-13T13:22:02;19.40;96.90
212;DHT22;16228;48.800;9.002;2023-05-13T13:24:49;20.00;96.90
212;DHT22;16228;48.800;9.002;2023-05-13T13:27:35;19.90;94.60
212;DHT22;16228;48.800;9.002;2023-05-13T13:30:21;19.80;96.90
212;DHT22;16228;48.800;9.002;2023-05-13T13:33:06;19.60;95.90
212;DHT22;16228;48.800;9.002;2023-05-13T13:35:52;19.80;96.90
212;DHT22;16228;48.800;9.002;2023-05-13T13:38:38;19.80;94.90
212;DHT22;16228;48.800;9.002;2023-05-13T13:41:25;20.60;95.00
212;DHT22;16228;48.800;9.002;2023-05-13T13:44:10;21.60;92.80
212;DHT22;16228;48.800;9.002;2023-05-13T13:46:56;21.50;90.70
212;DHT22;16228;48.800;9.002;2023-05-13T13:49:42;21.30;89.00
212;DHT22;16228;48.800;9.002;2023-05-13T13:52:28;21.30;91.90
212;DHT22;16228;48.800;9.002;2023-05-13T13:55:14;21.10;91.70
212;DHT22;16228;48.800;9.002;2023-05-13T13:58:01;20.50;92.70
212;DHT22;16228;48.800;9.002;2023-05-13T14:00:46;19.80;93.30
212;DHT22;16228;48.800;9.002;2023-05-13T14:03:32;19.20;96.70
212;DHT22;16228;48.800;9.002;2023-05-13T14:06:18;18.90;96.90
212;DHT22;16228;48.800;9.002;2023-05-13T14:09:05;18.50;96.90
212;DHT22;16228;48.800;9.002;2023-05-13T14:11:50;18.10;96.90
212;DHT22;16228;48.800;9.002;2023-05-13T14:14:37;17.90;96.90
212;DHT22;16228;48.800;9.002;2023-05-13T14:17:23;17.90;96.90
212;DHT22;16228;48.800;9.002;2023-05-13T14:20:09;17.90;96.90
212;DHT22;16228;48.800;9.002;2023-05-13T14:22:55;17.90;96.90
212;DHT22;16228;48.800;9.002;2023-05-13T14:25:41;18.00;96.90
212;DHT22;16228;48.800;9.002;2023-05-13T14:28:27;18.30;96.90
212;DHT22;16228;48.800;9.002;2023-05-13T14:31:14;18.40;96.90
212;DHT22;16228;48.800;9.002;2023-05-13T14:34:00;18.50;96.90
212;DHT22;16228;48.800;9.002;2023-05-13T14:36:46;18.50;96.90
212;DHT22;16228;48.800;9.002;2023-05-13T14:39:32;18.70;96.90
212;DHT22;16228;48.800;9.002;2023-05-13T14:42:17;19.00;96.90
212;DHT22;16228;48.800;9.002;2023-05-13T14:45:05;19.00;96.90
212;DHT22;16228;48.800;9.002;2023-05-13T14:47:52;19.00;96.90
212;DHT22;16228;48.800;9.002;2023-05-13T14:50:38;19.00;96.90
212;DHT22;16228;48.800;9.002;2023-05-13T14:53:23;18.70;96.90
212;DHT22;16228;48.800;9.002;2023-05-13T14:56:09;18.30;96.90
212;DHT22;16228;48.800;9.002;2023-05-13T14:58:56;18.00;96.90
212;DHT22;16228;48.800;9.002;2023-05-13T15:01:41;17.80;96.90
212;DHT22;16228;48.800;9.002;2023-05-13T15:04:29;17.50;96.90
212;DHT22;16228;48.800;9.002;2023-05-13T15:07:14;17.20;96.90
212;DHT22;16228;48.800;9.002;2023-05-13T15:10:00;17.10;96.90
212;DHT22;16228;48.800;9.002;2023-05-13T15:12:46;17.10;96.90
212;DHT22;16228;48.800;9.002;2023-05-13T15:15:32;17.10;96.90
212;DHT22;16228;48.800;9.002;2023-05-13T15:18:17;17.20;96.90
212;DHT22;16228;48.800;9.002;2023-05-13T15:21:05;17.20;96.90
212;DHT22;16228;48.800;9.002;2023-05-13T15:23:50;17.20;96.90
212;DHT22;16228;48.800;9.002;2023-05-13T15:26:36;17.20;96.90
212;DHT22;16228;48.800;9.002;2023-05-13T15:29:22;17.20;96.90
212;DHT22;16228;48.800;9.002;2023-05-13T15:32:08;17.00;96.90
212;DHT22;16228;48.800;9.002;2023-05-13T15:34:55;17.10;96.90
212;DHT22;16228;48.800;9.002;2023-05-13T15:37:42;17.10;96.90
212;DHT22;16228;48.800;9.002;2023-05-13T15:40:27;17.20;96.90
212;DHT22;16228;48.800;9.002;2023-05-13T15:43:13;17.20;96.90
212;DHT22;16228;48.800;9.002;2023-05-13T15:45:59;17.30;96.90
212;DHT22;16228;48.800;9.002;2023-05-13T15:48:45;17.30;96.90
212;DHT22;16228;48.800;9.002;2023-05-13T15:51:31;17.30;96.90
212;DHT22;16228;48.800;9.002;2023-05-13T15:54:18;17.40;96.90
212;DHT22;16228;48.800;9.002;2023-05-13T15:57:04;17.40;96.90
212;DHT22;16228;48.800;9.002;2023-05-13T15:59:50;17.50;96.90
212;DHT22;16228;48.800;9.002;2023-05-13T16:02:35;17.60;96.90
212;DHT22;16228;48.800;9.002;2023-05-13T16:05:23;17.50;96.90
212;DHT22;16228;48.800;9.002;2023-05-13T16:08:08;17.40;96.90
212;DHT22;16228;48.800;9.002;2023-05-13T16:10:55;17.40;96.90
212;DHT22;16228;48.800;9.002;2023-05-13T16:13:41;17.30;96.90
212;DHT22;16228;48.800;9.002;2023-05-13T16:16:28;17.10;96.90
212;DHT22;16228;48.800;9.002;2023-05-13T16:19:13;16.80;96.90
212;DHT22;16228;48.800;9.002;2023-05-13T16:22:04;16.70;96.90
212;DHT22;16228;48.800;9.002;2023-05-13T16:25:09;16.60;96.90
212;DHT22;16228;48.800;9.002;2023-05-13T16:27:57;16.50;96.90
212;DHT22;16228;48.800;9.002;2023-05-13T16:30:43;16.40;96.90
212;DHT22;16228;48.800;9.002;2023-05-13T16:33:28;16.30;96.90
212;DHT22;16228;48.800;9.002;2023-05-13T16:36:15;16.30;96.90
212;DHT22;16228;48.800;9.002;2023-05-13T16:38:42;16.20;96.90
212;DHT22;16228;48.800;9.002;2023-05-13T16:41:11;16.10;96.90
212;DHT22;16228;48.800;9.002;2023-05-13T16:43:40;16.00;96.90
212;DHT22;16228;48.800;9.002;2023-05-13T16:46:07;15.90;96.90
212;DHT22;16228;48.800;9.002;2023-05-13T16:48:34;15.80;96.90
212;DHT22;16228;48.800;9.002;2023-05-13T16:51:02;15.60;96.90
212;DHT22;16228;48.800;9.002;2023-05-13T16:53:29;15.60;96.90
212;DHT22;16228;48.800;9.002;2023-05-13T16:55:56;15.40;96.90
212;DHT22;16228;48.800;9.002;2023-05-13T16:58:23;15.30;96.90
212;DHT22;16228;48.800;9.002;2023-05-13T17:00:52;15.20;96.90
212;DHT22;16228;48.800;9.002;2023-05-13T17:03:19;15.20;96.90
212;DHT22;16228;48.800;9.002;2023-05-13T17:05:46;15.10;96.90
212;DHT22;16228;48.800;9.002;2023-05-13T17:08:13;15.10;96.90
212;DHT22;16228;48.800;9.002;2023-05-13T17:10:42;15.00;96.90
212;DHT22;16228;48.800;9.002;2023-05-13T17:13:09;15.10;96.90
212;DHT22;16228;48.800;9.002;2023-05-13T17:15:36;15.10;96.90
212;DHT22;16228;48.800;9.002;2023-05-13T17:18:04;15.20;96.90
212;DHT22;16228;48.800;9.002;2023-05-13T17:20:32;15.20;96.90
212;DHT22;16228;48.800;9.002;2023-05-13T17:22:59;15.20;96.90
212;DHT22;16228;48.800;9.002;2023-05-13T17:25:26;15.20;96.90
212;DHT22;16228;48.800;9.002;2023-05-13T17:27:53;15.20;96.90
212;DHT22;16228;48.800;9.002;2023-05-13T17:30:20;15.20;96.90
212;DHT22;16228;48.800;9.002;2023-05-13T17:32:48;15.20;96.90
212;DHT22;16228;48.800;9.002;2023-05-13T17:35:16;15.20;96.90
212;DHT22;16228;48.800;9.002;2023-05-13T17:37:44;15.30;96.90
212;DHT22;16228;48.800;9.002;2023-05-13T17:40:11;15.40;96.90
212;DHT22;16228;48.800;9.002;2023-05-13T17:42:39;15.40;96.90